Time;durP1;ratioP1;P1;durP2;ratioP2;P2;SDS_P1;SDS_P2;PMS_P1;PMS_P2;Temp;Humidity;BMP_temperature;BMP_pressure;BME280_temperature;BME280_humidity;BME280_pressure;Samples;Min_cycle;Max_cycle;Signal;HPM_P1;HPM_P2
2023/09/13 00:00:14;;;;;;;;;23.00;23.00;;;;;19.80;86.05;100835.84;6186466;22;45306;-88
2023/09/13 00:02:42;;;;;;;;;27.67;19.33;;;;;20.17;85.90;100901.66;6187863;23;45253;-89
2023/09/13 00:05:09;;;;;;;;;26.67;25.00;;;;;20.16;85.88;100901.78;6184401;23;47844;-88
2023/09/13 00:07:35;;;;;;;;;25.33;24.00;;;;;20.12;86.09;100900.38;6186622;22;45348;-86
2023/09/13 00:10:01;;;;;;;;;26.67;23.67;;;;;19.95;86.49;100872.22;6185884;22;45427;-87
2023/09/13 00:12:26;;;;;;;;;27.00;24.33;;;;;20.09;86.48;100901.50;6184439;23;45380;-88
2023/09/13 00:14:52;;;;;;;;;25.67;24.33;;;;;19.80;86.28;100862.81;6185723;23;46267;-87
2023/09/13 00:17:20;;;;;;;;;25.00;22.67;;;;;19.95;86.45;100894.66;6186269;23;45292;-87
2023/09/13 00:19:45;;;;;;;;;27.00;22.67;;;;;19.67;86.40;100841.50;6185605;23;45184;-88
2023/09/13 00:22:10;;;;;;;;;25.33;23.67;;;;;19.98;86.74;100902.47;6186125;23;45221;-87
2023/09/13 00:24:35;;;;;;;;;20.33;18.33;;;;;19.94;86.87;100901.06;6185532;23;47765;-86
2023/09/13 00:27:01;;;;;;;;;25.33;23.00;;;;;19.65;87.17;100862.31;6186439;22;45249;-87
2023/09/13 00:29:30;;;;;;;;;21.00;21.00;;;;;19.51;88.01;100846.50;6185705;23;45356;-87
2023/09/13 00:31:55;;;;;;;;;27.00;23.33;;;;;19.63;88.15;100867.00;6186441;22;45332;-88
2023/09/13 00:34:20;;;;;;;;;24.67;21.67;;;;;19.68;87.74;100875.56;6187713;22;45997;-87
2023/09/13 00:36:46;;;;;;;;;30.33;27.33;;;;;19.39;88.14;100827.72;6193289;23;45236;-86
2023/09/13 00:39:12;;;;;;;;;20.67;19.67;;;;;19.59;88.27;100876.38;6190223;23;45244;-88
2023/09/13 00:41:37;;;;;;;;;24.67;22.00;;;;;19.79;88.17;100906.97;6187773;23;45267;-87
2023/09/13 00:44:03;;;;;;;;;20.33;20.33;;;;;19.47;88.83;100858.56;6185680;22;46508;-88
2023/09/13 00:46:28;;;;;;;;;21.33;21.33;;;;;19.70;89.28;100914.06;6185963;23;45253;-88
2023/09/13 00:48:54;;;;;;;;;21.00;21.00;;;;;19.56;89.51;100892.84;6183902;23;45188;-89
2023/09/13 00:51:20;;;;;;;;;23.33;21.00;;;;;19.21;89.67;100836.59;6187070;22;45284;-88
2023/09/13 00:53:47;;;;;;;;;26.67;23.67;;;;;19.64;90.17;100917.28;6187131;22;45304;-88
2023/09/13 00:56:12;;;;;;;;;21.67;21.67;;;;;19.59;90.29;100916.84;6188644;22;45131;-86
2023/09/13 00:58:38;;;;;;;;;22.33;21.00;;;;;18.89;90.23;100796.31;6187141;22;45232;-88
2023/09/13 01:01:03;;;;;;;;;22.00;21.00;;;;;19.31;90.66;100881.50;6187633;23;45153;-86
2023/09/13 01:03:30;;;;;;;;;21.67;20.67;;;;;19.29;90.10;100875.41;6187387;23;46183;-87
2023/09/13 01:05:56;;;;;;;;;17.00;16.00;;;;;19.45;90.59;100927.00;6195112;22;45313;-87
2023/09/13 01:08:22;;;;;;;;;23.00;21.67;;;;;19.42;90.72;100918.31;6193612;23;45118;-88
2023/09/13 01:10:47;;;;;;;;;23.67;18.67;;;;;19.08;91.16;100863.78;6203002;22;45277;-87
2023/09/13 01:13:13;;;;;;;;;21.33;21.33;;;;;19.37;91.78;100916.00;6203645;23;45327;-87
2023/09/13 01:15:50;;;;;;;;;23.67;21.33;;;;;19.15;91.94;100883.84;6203366;22;45243;-87
2023/09/13 01:18:27;;;;;;;;;25.00;23.67;;;;;18.75;91.92;100825.31;6193144;23;45153;-88
2023/09/13 01:21:23;;;;;;;;;24.33;24.33;;;;;19.26;92.70;100908.00;6189063;22;44649;-89
2023/09/13 01:24:08;;;;;;;;;24.67;22.67;;;;;19.12;92.87;100890.34;6189781;22;45694;-88
2023/09/13 01:27:13;;;;;;;;;24.00;22.00;;;;;19.08;92.84;100882.66;6212224;22;45208;-86
2023/09/13 01:29:40;;;;;;;;;22.67;22.00;;;;;19.15;92.96;100903.56;6187554;23;45249;-88
2023/09/13 01:32:06;;;;;;;;;29.33;24.33;;;;;19.13;92.88;100896.56;6190035;23;45272;-89
2023/09/13 01:34:31;;;;;;;;;24.33;21.33;;;;;19.24;92.88;100914.53;6187657;23;46040;-88
2023/09/13 01:36:57;;;;;;;;;26.67;23.00;;;;;19.15;93.09;100892.78;6186477;23;45325;-89
2023/09/13 01:39:22;;;;;;;;;25.00;25.00;;;;;19.20;92.99;100899.59;6189056;22;45345;-86
2023/09/13 01:41:56;;;;;;;;;28.00;24.67;;;;;19.29;92.57;100898.81;6185780;23;45247;-89
2023/09/13 01:44:22;;;;;;;;;30.00;23.00;;;;;19.34;92.05;100905.50;6187922;22;45688;-89
2023/09/13 01:46:50;;;;;;;;;32.33;29.67;;;;;19.29;91.96;100891.56;6186053;23;45268;-89
2023/09/13 01:49:18;;;;;;;;;26.00;24.67;;;;;19.61;91.36;100939.16;6189008;23;45275;-88
2023/09/13 01:51:45;;;;;;;;;23.67;22.67;;;;;19.24;91.15;100869.53;6188907;23;45590;-89
2023/09/13 01:54:10;;;;;;;;;26.00;26.00;;;;;19.27;91.57;100877.38;6188188;22;45319;-89
2023/09/13 01:56:36;;;;;;;;;26.67;24.00;;;;;19.64;91.24;100944.28;6195183;23;45383;-87
2023/09/13 01:59:01;;;;;;;;;27.33;25.67;;;;;19.38;91.31;100898.84;6195698;23;45287;-88
2023/09/13 02:01:26;;;;;;;;;23.00;23.00;;;;;19.39;91.10;100902.38;6199792;23;45331;-88
2023/09/13 02:03:52;;;;;;;;;27.67;27.00;;;;;19.17;91.34;100870.22;6195436;23;45371;-87
2023/09/13 02:06:17;;;;;;;;;23.67;23.67;;;;;19.29;91.11;100896.97;6195164;23;45276;-88
2023/09/13 02:08:43;;;;;;;;;26.33;24.67;;;;;19.53;91.24;100936.22;6190941;23;45375;-87
2023/09/13 02:11:09;;;;;;;;;24.67;24.00;;;;;19.54;90.73;100932.56;6198046;23;45253;-87
2023/09/13 02:13:34;;;;;;;;;28.67;25.00;;;;;19.34;90.49;100910.88;6199084;23;45039;-88
2023/09/13 02:16:00;;;;;;;;;25.00;22.67;;;;;19.58;91.16;100950.22;6200858;23;45065;-88
2023/09/13 02:18:25;;;;;;;;;29.33;24.67;;;;;19.53;91.03;100953.31;6203892;22;45161;-87
2023/09/13 02:20:51;;;;;;;;;23.00;23.00;;;;;19.10;90.54;100880.69;6202069;23;45550;-87
2023/09/13 02:23:16;;;;;;;;;22.33;20.00;;;;;19.56;90.50;100957.59;6203897;23;47211;-87
2023/09/13 02:25:45;;;;;;;;;20.00;18.67;;;;;19.24;90.33;100915.38;6198169;23;44583;-88
2023/09/13 02:28:11;;;;;;;;;25.67;21.33;;;;;19.43;90.19;100963.19;6189955;22;45256;-87
2023/09/13 02:30:36;;;;;;;;;18.00;17.33;;;;;18.96;90.01;100900.75;6186656;22;45582;-87
2023/09/13 02:33:02;;;;;;;;;24.33;22.67;;;;;18.91;89.89;100885.97;6184872;23;47459;-88
2023/09/13 02:35:27;;;;;;;;;18.00;18.00;;;;;19.30;89.62;100959.84;6185954;23;45265;-87
2023/09/13 02:37:53;;;;;;;;;20.33;19.00;;;;;19.38;89.36;100977.03;6185654;23;45601;-87
2023/09/13 02:40:18;;;;;;;;;20.33;20.33;;;;;19.10;89.07;100934.59;6183705;23;45340;-88
2023/09/13 02:42:44;;;;;;;;;20.33;20.33;;;;;19.13;89.50;100929.78;6184152;22;45366;-86
2023/09/13 02:45:09;;;;;;;;;26.33;21.33;;;;;19.34;89.56;100966.66;6182695;23;45212;-87
2023/09/13 02:47:35;;;;;;;;;20.67;19.67;;;;;19.06;89.76;100930.47;6208529;22;45185;-87
2023/09/13 02:50:01;;;;;;;;;20.67;20.67;;;;;18.59;90.37;100867.97;6183290;23;45467;-88
2023/09/13 02:52:33;;;;;;;;;19.33;19.33;;;;;19.15;91.24;100973.66;6185394;22;45384;-86
2023/09/13 02:55:00;;;;;;;;;18.33;18.33;;;;;18.79;91.33;100921.06;6187956;22;45392;-87
2023/09/13 02:57:26;;;;;;;;;20.33;20.00;;;;;18.78;91.04;100921.19;6188227;22;45269;-89
2023/09/13 02:59:52;;;;;;;;;20.00;19.00;;;;;19.07;91.05;100978.00;6188090;22;45328;-86
2023/09/13 03:02:17;;;;;;;;;24.00;21.00;;;;;18.74;90.54;100927.81;6189030;22;45402;-86
2023/09/13 03:04:43;;;;;;;;;21.67;19.00;;;;;19.05;89.18;100982.66;6190702;22;45346;-88
2023/09/13 03:07:09;;;;;;;;;16.00;15.00;;;;;18.56;89.15;100914.03;6186646;23;45171;-88
2023/09/13 03:09:35;;;;;;;;;18.00;18.00;;;;;18.84;89.25;100948.47;6183953;23;45471;-88
2023/09/13 03:12:01;;;;;;;;;22.67;22.67;;;;;19.00;89.31;100968.72;6182723;23;48369;-87
2023/09/13 03:14:27;;;;;;;;;18.33;17.33;;;;;19.13;88.93;100988.25;6182777;23;45692;-86
2023/09/13 03:16:53;;;;;;;;;15.33;13.33;;;;;19.16;89.20;100969.13;6185176;23;45359;-85
2023/09/13 03:19:18;;;;;;;;;17.67;16.67;;;;;18.83;88.53;100917.09;6208785;22;45254;-86
2023/09/13 03:21:44;;;;;;;;;16.67;14.00;;;;;18.93;88.36;100924.41;6185308;22;45967;-87
2023/09/13 03:24:09;;;;;;;;;19.67;16.00;;;;;19.12;88.11;100962.25;6185230;23;45363;-90
2023/09/13 03:26:35;;;;;;;;;19.00;19.00;;;;;18.96;88.69;100934.94;6187790;23;45471;-86
2023/09/13 03:29:00;;;;;;;;;16.33;15.67;;;;;19.24;88.56;100990.03;6185165;23;45292;-87
2023/09/13 03:31:27;;;;;;;;;21.67;17.67;;;;;19.18;89.03;100977.94;6210168;22;47396;-87
2023/09/13 03:33:55;;;;;;;;;24.00;18.33;;;;;19.10;89.72;100983.13;6186819;22;45140;-88
2023/09/13 03:36:21;;;;;;;;;21.33;18.00;;;;;18.55;90.00;100902.41;6186996;23;45348;-88
2023/09/13 03:38:47;;;;;;;;;19.00;17.33;;;;;18.92;90.55;100980.16;6186595;22;45546;-87
2023/09/13 03:41:21;;;;;;;;;18.67;17.67;;;;;18.73;91.07;100950.34;6186862;22;46278;-88
2023/09/13 03:43:47;;;;;;;;;22.33;19.00;;;;;18.81;90.85;100959.50;6193403;22;45367;-87
2023/09/13 03:46:12;;;;;;;;;20.00;17.00;;;;;18.83;91.04;100949.44;6204505;22;44765;-88
2023/09/13 03:48:38;;;;;;;;;18.33;18.33;;;;;18.95;91.56;100973.66;6193927;23;45260;-86
2023/09/13 03:51:04;;;;;;;;;19.33;18.00;;;;;18.98;91.35;100971.53;6187169;22;45511;-88
2023/09/13 03:53:30;;;;;;;;;19.67;16.00;;;;;18.66;90.97;100915.00;6183720;23;45256;-87
2023/09/13 03:55:56;;;;;;;;;15.67;15.00;;;;;18.50;90.60;100893.88;6186561;23;45160;-85
2023/09/13 03:58:23;;;;;;;;;21.67;18.67;;;;;18.79;90.72;100942.63;6184723;22;45300;-88
2023/09/13 04:00:49;;;;;;;;;19.00;15.00;;;;;18.65;90.46;100918.69;6185711;23;46869;-88
2023/09/13 04:03:19;;;;;;;;;19.67;14.33;;;;;18.90;91.02;100970.50;6186622;23;45604;-87
2023/09/13 04:05:44;;;;;;;;;21.67;18.33;;;;;18.54;92.02;100926.78;6209312;22;45335;-87
2023/09/13 04:08:10;;;;;;;;;14.00;12.00;;;;;18.41;92.05;100926.09;6186356;23;45363;-87
2023/09/13 04:10:36;;;;;;;;;20.67;17.33;;;;;18.77;91.44;100981.47;6185907;22;45188;-86
2023/09/13 04:13:01;;;;;;;;;16.67;14.33;;;;;18.66;92.34;100968.88;6183719;23;45179;-87
2023/09/13 04:15:26;;;;;;;;;15.67;15.00;;;;;18.65;92.26;100972.56;6185800;23;45158;-87
2023/09/13 04:17:52;;;;;;;;;16.33;15.00;;;;;18.60;92.63;100957.72;6185931;23;45330;-87
2023/09/13 04:20:17;;;;;;;;;16.33;16.00;;;;;18.56;92.50;100963.38;6183268;23;48437;-86
2023/09/13 04:22:43;;;;;;;;;21.33;16.33;;;;;18.51;92.46;100948.59;6185405;22;45221;-88
2023/09/13 04:25:08;;;;;;;;;18.33;18.00;;;;;18.73;92.74;100974.59;6183434;23;45495;-85
2023/09/13 04:27:34;;;;;;;;;15.67;15.67;;;;;18.72;92.71;100984.53;6185588;22;45400;-86
2023/09/13 04:29:59;;;;;;;;;20.00;19.00;;;;;18.78;92.10;100975.94;6185184;22;45181;-87
2023/09/13 04:32:24;;;;;;;;;14.00;14.00;;;;;18.76;91.61;100956.34;6185440;23;45285;-86
2023/09/13 04:34:50;;;;;;;;;16.67;16.67;;;;;18.88;91.34;100970.63;6187131;23;45260;-87
2023/09/13 04:37:16;;;;;;;;;18.33;15.33;;;;;18.70;90.44;100932.59;6184544;23;45276;-87
2023/09/13 04:39:41;;;;;;;;;16.00;15.00;;;;;18.93;90.47;100975.63;6187722;22;45315;-86
2023/09/13 04:42:07;;;;;;;;;14.67;14.00;;;;;18.60;90.37;100915.47;6186223;23;45228;-86
2023/09/13 04:44:33;;;;;;;;;17.67;15.00;;;;;18.96;89.81;100962.72;6186037;23;45289;-85
2023/09/13 04:47:02;;;;;;;;;16.67;16.33;;;;;18.61;89.00;100905.56;6186584;23;45268;-86
2023/09/13 04:49:28;;;;;;;;;15.67;15.67;;;;;19.14;88.87;100979.16;6186387;23;46119;-87
2023/09/13 04:51:54;;;;;;;;;20.33;19.00;;;;;19.20;88.25;100984.03;6183582;23;45904;-87
2023/09/13 04:54:23;;;;;;;;;16.00;16.00;;;;;19.11;88.11;100957.88;6186490;23;45204;-86
2023/09/13 04:56:51;;;;;;;;;19.00;17.00;;;;;19.07;88.13;100957.28;6185555;23;45361;-88
2023/09/13 04:59:17;;;;;;;;;19.67;18.00;;;;;19.27;87.75;100987.94;6185289;22;46316;-86
2023/09/13 05:01:43;;;;;;;;;21.33;20.00;;;;;19.07;87.64;100953.72;6209516;22;45594;-86
2023/09/13 05:04:09;;;;;;;;;18.67;16.67;;;;;19.19;87.32;100970.69;6186432;22;45122;-88
2023/09/13 05:06:35;;;;;;;;;19.00;17.33;;;;;19.13;87.39;100963.97;6187557;22;45530;-86
2023/09/13 05:09:01;;;;;;;;;18.33;16.67;;;;;19.27;87.67;100998.72;6183913;23;47048;-86
2023/09/13 05:11:26;;;;;;;;;19.67;18.00;;;;;19.33;87.14;100986.53;6187896;23;45442;-86
2023/09/13 05:14:16;;;;;;;;;16.00;15.00;;;;;19.36;86.91;101000.59;6211305;22;45740;-87
2023/09/13 05:16:41;;;;;;;;;17.00;17.00;;;;;19.20;86.24;100967.00;6185109;23;45463;-87
2023/09/13 05:19:07;;;;;;;;;16.00;14.67;;;;;19.39;86.30;100994.94;6184574;23;46332;-86
2023/09/13 05:21:34;;;;;;;;;17.67;16.33;;;;;19.15;86.00;100965.59;6188148;22;45208;-87
2023/09/13 05:24:00;;;;;;;;;16.67;16.00;;;;;19.31;85.79;100997.47;6187443;22;45368;-88
2023/09/13 05:26:26;;;;;;;;;18.00;16.00;;;;;19.04;85.37;100957.56;6186515;22;45457;-88
2023/09/13 05:28:51;;;;;;;;;13.33;13.33;;;;;19.35;84.97;101017.78;6184042;23;47791;-85
2023/09/13 05:31:16;;;;;;;;;21.00;16.00;;;;;19.23;84.76;100989.16;6184235;23;48005;-87
2023/09/13 05:33:42;;;;;;;;;15.00;14.00;;;;;19.45;84.43;101025.94;6185142;22;58558;-86
2023/09/13 05:36:08;;;;;;;;;19.33;17.00;;;;;19.44;84.63;101022.38;6210699;22;45270;-86
2023/09/13 05:38:33;;;;;;;;;15.00;15.00;;;;;19.31;84.66;101002.84;6187114;22;46031;-86
2023/09/13 05:41:08;;;;;;;;;13.00;11.33;;;;;19.23;84.04;101005.34;6185464;23;44987;-87
2023/09/13 05:43:34;;;;;;;;;17.67;14.67;;;;;19.11;84.68;100992.91;6210362;22;45464;-86
2023/09/13 05:46:00;;;;;;;;;15.67;14.33;;;;;19.22;84.05;101013.56;6184427;23;45373;-87
2023/09/13 05:48:25;;;;;;;;;16.00;14.67;;;;;19.35;84.54;101039.34;6184286;23;46949;-88
2023/09/13 05:50:51;;;;;;;;;16.00;14.00;;;;;19.17;84.77;101002.34;6186135;23;45200;-88
2023/09/13 05:53:19;;;;;;;;;17.33;15.33;;;;;19.37;84.51;101050.84;6184083;22;45229;-88
2023/09/13 05:55:45;;;;;;;;;15.00;15.00;;;;;19.17;85.12;101016.66;6186061;22;45296;-87
2023/09/13 05:58:10;;;;;;;;;17.33;13.33;;;;;19.24;85.02;101028.63;6185493;23;45559;-87
2023/09/13 06:00:35;;;;;;;;;16.67;15.33;;;;;19.05;85.02;100990.75;6184612;23;45266;-87
2023/09/13 06:03:01;;;;;;;;;20.67;19.00;;;;;19.43;84.74;101061.13;6186512;23;45268;-87
2023/09/13 06:05:26;;;;;;;;;20.00;16.33;;;;;19.43;84.05;101061.13;6190254;23;44912;-86
2023/09/13 06:07:53;;;;;;;;;21.00;18.67;;;;;19.07;84.42;101004.94;6189318;23;46296;-90
2023/09/13 06:10:18;;;;;;;;;17.00;17.00;;;;;18.88;83.95;100967.06;6194162;23;45320;-89
2023/09/13 06:12:43;;;;;;;;;14.00;12.67;;;;;19.41;84.44;101063.13;6201148;22;45210;-89
2023/09/13 06:15:09;;;;;;;;;23.67;19.67;;;;;19.07;84.64;100999.56;6199821;22;45296;-90
2023/09/13 06:17:36;;;;;;;;;15.33;15.33;;;;;19.24;84.09;101025.94;6195089;23;45724;-87
2023/09/13 06:20:04;;;;;;;;;15.67;15.67;;;;;19.35;83.84;101052.84;6191159;23;44923;-84
2023/09/13 06:22:29;;;;;;;;;21.67;17.33;;;;;19.34;84.57;101034.94;6197074;22;45170;-88
2023/09/13 06:25:06;;;;;;;;;23.00;17.67;;;;;19.00;84.17;100980.34;5096476;27;45415;-89
2023/09/13 06:27:32;;;;;;;;;15.00;13.00;;;;;19.34;82.75;101020.59;5078285;28;45421;-87
2023/09/13 06:29:57;;;;;;;;;17.33;13.67;;;;;19.39;82.58;101021.91;5087797;27;44879;-88
2023/09/13 06:32:23;;;;;;;;;20.00;16.00;;;;;19.54;82.43;101040.47;5086711;28;45517;-87
2023/09/13 06:34:48;;;;;;;;;18.33;16.67;;;;;19.73;82.15;101075.69;5092786;27;45176;-85
2023/09/13 06:37:14;;;;;;;;;14.33;14.33;;;;;19.71;82.25;101073.13;5088869;27;45217;-84
2023/09/13 06:39:40;;;;;;;;;19.33;15.33;;;;;19.73;82.26;101078.38;5089801;27;45155;-85
2023/09/13 06:42:06;;;;;;;;;16.33;15.67;;;;;19.70;82.42;101076.81;5088077;27;44815;-86
2023/09/13 06:44:32;;;;;;;;;18.67;17.00;;;;;19.67;82.47;101073.53;5088194;28;45445;-87
2023/09/13 06:46:57;;;;;;;;;19.00;17.67;;;;;19.70;82.54;101075.97;5082940;28;45426;-85
2023/09/13 06:49:22;;;;;;;;;18.67;16.00;;;;;19.70;82.15;101068.72;5076377;28;45258;-85
2023/09/13 06:51:48;;;;;;;;;15.67;15.67;;;;;19.76;82.20;101063.78;5080338;27;45314;-84
2023/09/13 06:54:14;;;;;;;;;16.33;14.67;;;;;19.81;81.68;101070.50;5079570;27;45402;-85
2023/09/13 06:56:41;;;;;;;;;55.67;34.67;;;;;19.51;81.56;101016.44;5088444;28;44617;-87
2023/09/13 06:59:07;;;;;;;;;17.00;16.33;;;;;19.91;81.51;101082.16;5090263;28;45324;-84
2023/09/13 07:01:33;;;;;;;;;21.00;17.00;;;;;19.95;81.44;101085.47;5086945;28;44808;-87
2023/09/13 07:03:58;;;;;;;;;22.67;17.67;;;;;19.72;81.21;101049.69;5090133;28;45674;-85
2023/09/13 07:06:24;;;;;;;;;26.00;21.00;;;;;19.66;81.06;101044.81;5088744;28;44695;-87
2023/09/13 07:08:49;;;;;;;;;30.67;25.67;;;;;20.01;81.26;101080.38;5081818;28;45376;-87
2023/09/13 07:11:16;;;;;;;;;19.33;16.00;;;;;20.08;80.80;101088.81;5079452;28;45612;-87
2023/09/13 07:13:41;;;;;;;;;22.00;18.33;;;;;19.76;80.55;101037.63;5075500;28;46455;-85
2023/09/13 07:16:06;;;;;;;;;19.33;17.67;;;;;20.14;80.83;101090.09;5075156;28;45369;-85
2023/09/13 07:18:32;;;;;;;;;16.33;15.00;;;;;19.93;79.76;101045.13;5075307;28;45275;-88
2023/09/13 07:20:57;;;;;;;;;22.00;20.67;;;;;20.28;79.65;101085.19;5076164;28;45562;-86
2023/09/13 07:23:22;;;;;;;;;21.00;19.33;;;;;20.30;79.09;101085.03;5073766;28;45461;-87
2023/09/13 07:25:48;;;;;;;;;18.67;18.33;;;;;20.39;78.85;101097.75;5073657;28;45469;-84
2023/09/13 07:28:15;;;;;;;;;21.00;21.00;;;;;20.32;78.48;101081.25;5072275;28;45326;-85
2023/09/13 07:30:40;;;;;;;;;19.33;19.33;;;;;20.48;78.49;101099.66;5068584;27;45557;-82
2023/09/13 07:33:06;;;;;;;;;31.33;29.67;;;;;20.48;78.00;101099.66;5072300;27;46016;-81
2023/09/13 07:35:31;;;;;;;;;26.67;25.00;;;;;20.51;76.90;101109.34;5064660;28;52893;-86
2023/09/13 07:37:56;;;;;;;;;23.00;19.00;;;;;20.55;76.93;101117.00;5059203;28;45326;-82
2023/09/13 07:40:22;;;;;;;;;23.00;21.67;;;;;20.55;77.17;101106.22;5058639;28;59712;-83
2023/09/13 07:42:47;;;;;;;;;23.67;21.67;;;;;20.71;76.95;101119.22;5059061;28;45386;-83
2023/09/13 07:45:12;;;;;;;;;18.67;18.33;;;;;20.69;76.42;101098.69;5059696;28;45332;-83
2023/09/13 07:47:38;;;;;;;;;17.67;17.67;;;;;20.81;76.17;101121.91;5059851;28;45298;-85
2023/09/13 07:50:04;;;;;;;;;29.67;23.00;;;;;20.81;76.33;101127.31;5061880;28;45464;-83
2023/09/13 07:52:29;;;;;;;;;18.33;16.67;;;;;20.76;75.51;101132.31;5060460;27;45377;-85
2023/09/13 07:54:55;;;;;;;;;13.00;11.67;;;;;20.56;75.71;101109.75;5059769;28;46303;-84
2023/09/13 07:57:21;;;;;;;;;17.67;13.67;;;;;20.64;75.96;101131.56;5060792;28;45793;-84
2023/09/13 07:59:46;;;;;;;;;16.67;15.33;;;;;20.65;76.11;101141.38;5060614;28;45370;-84
2023/09/13 08:02:11;;;;;;;;;17.33;17.00;;;;;20.65;76.08;101135.13;5060273;28;46194;-83
2023/09/13 08:04:37;;;;;;;;;25.67;19.00;;;;;20.66;76.52;101151.19;5060053;28;45378;-84
2023/09/13 08:07:03;;;;;;;;;12.33;10.67;;;;;20.54;75.98;101130.66;5060411;28;45456;-86
2023/09/13 08:09:28;;;;;;;;;23.00;21.33;;;;;20.73;75.63;101148.81;5060487;28;45465;-88
2023/09/13 08:11:54;;;;;;;;;19.67;16.00;;;;;20.78;74.75;101151.94;5060101;28;46556;-85
2023/09/13 08:14:20;;;;;;;;;22.33;19.33;;;;;20.89;74.48;101151.84;5059363;28;45359;-86
2023/09/13 08:16:46;;;;;;;;;23.33;17.33;;;;;20.82;73.96;101134.44;5061032;28;45385;-88
2023/09/13 08:19:11;;;;;;;;;26.33;19.67;;;;;21.05;74.40;101154.00;5055183;28;45461;-85
2023/09/13 08:21:37;;;;;;;;;21.00;18.67;;;;;20.92;73.75;101121.81;5063265;28;46272;-85
2023/09/13 08:24:03;;;;;;;;;18.00;17.33;;;;;21.05;73.44;101144.03;5068400;28;45303;-85
2023/09/13 08:26:30;;;;;;;;;57.67;32.33;;;;;20.96;73.50;101128.63;5066232;28;45287;-86
2023/09/13 08:28:56;;;;;;;;;17.33;16.00;;;;;20.82;73.32;101097.44;5076990;28;45424;-84
2023/09/13 08:31:23;;;;;;;;;24.67;19.67;;;;;21.15;72.40;101147.59;5079027;28;46059;-86
2023/09/13 08:33:49;;;;;;;;;16.33;16.33;;;;;20.79;72.55;101099.59;5095357;27;45392;-85
2023/09/13 08:36:14;;;;;;;;;22.33;18.00;;;;;21.04;72.34;101147.72;5074217;28;45428;-83
2023/09/13 08:38:40;;;;;;;;;20.67;20.67;;;;;21.11;72.63;101166.97;5049874;28;45659;-83
2023/09/13 08:41:05;;;;;;;;;27.33;21.33;;;;;20.98;72.72;101147.44;5078306;28;45519;-83
2023/09/13 08:43:32;;;;;;;;;18.33;17.33;;;;;21.35;72.32;101194.47;5070246;28;45556;-84
2023/09/13 08:46:00;;;;;;;;;22.33;20.33;;;;;21.42;72.24;101197.50;5061447;28;45448;-81
2023/09/13 08:48:26;;;;;;;;;21.67;19.00;;;;;21.25;71.62;101171.13;5078029;27;45278;-84
2023/09/13 08:50:52;;;;;;;;;21.67;21.33;;;;;21.53;70.81;101194.66;5065794;28;46886;-84
2023/09/13 08:53:19;;;;;;;;;21.33;21.33;;;;;21.73;70.33;101207.16;5069447;27;45374;-83
2023/09/13 08:55:46;;;;;;;;;17.00;17.00;;;;;21.87;69.65;101189.63;5059410;28;45474;-86
2023/09/13 08:58:12;;;;;;;;;21.00;19.00;;;;;21.97;69.23;101186.91;5075906;28;45490;-85
2023/09/13 09:00:42;;;;;;;;;22.33;18.67;;;;;22.13;68.11;101205.31;5066931;28;46192;-87
2023/09/13 09:03:10;;;;;;;;;26.00;19.33;;;;;22.19;68.24;101200.19;5067498;28;45358;-84
2023/09/13 09:05:37;;;;;;;;;38.33;26.33;;;;;22.17;67.62;101207.59;5062168;28;44827;-85
2023/09/13 09:08:04;;;;;;;;;20.33;19.33;;;;;22.13;67.91;101217.00;5069167;28;45597;-81
2023/09/13 09:10:33;;;;;;;;;19.00;17.00;;;;;21.90;67.80;101183.94;5069551;27;45309;-84
2023/09/13 09:13:00;;;;;;;;;18.33;16.33;;;;;21.85;68.17;101191.63;5078263;28;45246;-82
2023/09/13 09:15:26;;;;;;;;;19.00;17.67;;;;;22.00;68.11;101211.84;5074027;27;45184;-82
2023/09/13 09:17:54;;;;;;;;;20.00;16.00;;;;;21.84;68.04;101217.00;5068244;28;45253;-87
2023/09/13 09:20:20;;;;;;;;;22.67;19.67;;;;;21.70;69.12;101221.00;5078906;28;45494;-86
2023/09/13 09:22:47;;;;;;;;;24.67;23.00;;;;;21.63;69.28;101225.28;5083381;28;44830;-84
2023/09/13 09:25:13;;;;;;;;;20.33;18.33;;;;;21.58;69.73;101224.00;5052975;28;45483;-86
2023/09/13 09:27:40;;;;;;;;;22.67;21.00;;;;;21.44;69.42;101172.00;5097727;27;45924;-86
2023/09/13 09:30:07;;;;;;;;;28.00;25.33;;;;;22.04;68.86;101225.97;5084208;28;46865;-87
2023/09/13 09:32:37;;;;;;;;;24.00;20.67;;;;;22.22;68.43;101229.69;5082577;28;45645;-86
2023/09/13 09:35:07;;;;;;;;;18.00;18.00;;;;;22.07;68.16;101223.88;5093389;27;44861;-86
2023/09/13 09:37:35;;;;;;;;;28.67;24.00;;;;;22.04;67.80;101229.53;5086945;28;45368;-84
2023/09/13 09:40:01;;;;;;;;;27.67;20.67;;;;;21.78;68.06;101196.78;5081251;28;48387;-85
2023/09/13 09:42:29;;;;;;;;;29.33;25.33;;;;;22.10;68.01;101230.84;5085275;28;45290;-85
2023/09/13 09:44:55;;;;;;;;;17.33;17.33;;;;;22.16;67.82;101232.97;5076969;28;45438;-86
2023/09/13 09:47:21;;;;;;;;;20.00;17.00;;;;;22.17;68.17;101234.69;5084642;28;45504;-85
2023/09/13 09:49:47;;;;;;;;;22.67;19.33;;;;;22.14;67.63;101229.56;5061687;28;47288;-83
2023/09/13 09:52:14;;;;;;;;;19.67;18.67;;;;;22.25;68.25;101232.09;5065180;28;45471;-85
2023/09/13 09:54:45;;;;;;;;;20.67;18.00;;;;;22.47;67.00;101228.19;5083847;27;45188;-85
2023/09/13 09:57:11;;;;;;;;;18.00;18.00;;;;;22.51;66.36;101201.63;5081173;28;45595;-86
2023/09/13 09:59:37;;;;;;;;;18.67;18.67;;;;;22.63;65.98;101192.31;5081097;28;46027;-83
2023/09/13 10:02:03;;;;;;;;;22.00;17.67;;;;;22.98;64.84;101207.88;5078232;27;45325;-84
2023/09/13 10:04:30;;;;;;;;;20.67;18.67;;;;;23.33;64.33;101244.25;5109831;27;45424;-84
2023/09/13 10:07:03;;;;;;;;;22.33;16.00;;;;;23.43;63.25;101218.72;5098843;27;45635;-83
2023/09/13 10:09:42;;;;;;;;;19.67;18.00;;;;;23.95;62.59;101239.75;5104879;27;48126;-84
2023/09/13 10:12:11;;;;;;;;;13.00;12.00;;;;;24.10;60.83;101198.31;5077671;27;45306;-84
2023/09/13 10:14:38;;;;;;;;;17.33;13.67;;;;;24.41;59.81;101206.84;5077760;27;45171;-84
2023/09/13 10:17:05;;;;;;;;;16.00;16.00;;;;;24.59;59.06;101212.22;5082979;28;45310;-83
2023/09/13 10:19:32;;;;;;;;;16.67;16.67;;;;;24.79;58.66;101236.47;5076134;27;45516;-85
2023/09/13 10:21:57;;;;;;;;;14.00;13.00;;;;;24.57;58.64;101219.69;5081181;28;45656;-83
2023/09/13 10:24:25;;;;;;;;;12.75;12.75;;;;;24.39;59.06;101237.94;5081874;28;45306;-86
2023/09/13 10:26:54;;;;;;;;;25.67;23.33;;;;;24.25;59.92;101241.22;5077733;28;45476;-82
2023/09/13 10:29:35;;;;;;;;;21.00;18.67;;;;;24.19;60.89;101242.69;5075836;28;46294;-80
2023/09/13 10:32:06;;;;;;;;;20.00;19.00;;;;;24.12;59.74;101236.19;5092329;27;45459;-84
2023/09/13 10:34:34;;;;;;;;;15.00;13.67;;;;;24.15;59.93;101237.72;5074346;28;45472;-83
2023/09/13 10:37:12;;;;;;;;;25.33;23.33;;;;;24.21;60.65;101239.78;5051430;28;45489;-85
2023/09/13 10:40:10;;;;;;;;;19.33;18.67;;;;;24.25;60.04;101233.06;5076783;27;46667;-84
2023/09/13 10:42:40;;;;;;;;;12.25;10.50;;;;;24.29;59.29;101229.00;5072978;28;45350;-85
2023/09/13 10:45:06;;;;;;;;;15.67;15.67;;;;;24.39;58.87;101229.78;5073073;28;45518;-84
2023/09/13 10:47:32;;;;;;;;;19.00;17.67;;;;;24.51;59.05;101224.94;5076175;27;45373;-86
2023/09/13 10:50:00;;;;;;;;;14.00;14.00;;;;;24.64;57.57;101226.19;5062912;28;45291;-86
2023/09/13 10:52:25;;;;;;;;;12.33;12.33;;;;;24.77;57.02;101231.19;5063623;28;45390;-86
2023/09/13 10:54:52;;;;;;;;;13.25;13.25;;;;;24.79;57.29;101204.66;5061097;28;45294;-83
2023/09/13 10:57:19;;;;;;;;;14.67;14.67;;;;;25.15;57.04;101239.88;5063202;28;45303;-90
2023/09/13 10:59:46;;;;;;;;;13.50;11.00;;;;;25.00;56.89;101201.50;5069334;28;49189;-85
2023/09/13 11:02:11;;;;;;;;;11.00;11.00;;;;;25.20;55.83;101234.78;5072631;28;45383;-84
2023/09/13 11:04:38;;;;;;;;;10.00;9.25;;;;;25.11;55.80;101242.06;5065927;28;45113;-85
2023/09/13 11:07:04;;;;;;;;;21.25;16.50;;;;;24.95;56.16;101239.25;5067720;28;45619;-86